createdAt,value
2018-05-06T00:01:28.305Z,4.97
2018-05-06T00:03:56.863Z,4.80
2018-05-06T00:06:24.665Z,5.50
2018-05-06T00:08:52.452Z,3.93
2018-05-06T00:11:21.475Z,4.17
2018-05-06T00:13:49.328Z,4.93
2018-05-06T00:16:18.748Z,4.70
2018-05-06T00:18:46.608Z,4.10
2018-05-06T00:21:14.425Z,4.13
2018-05-06T00:23:42.983Z,3.50
2018-05-06T00:26:13.330Z,3.50
2018-05-06T00:28:41.106Z,3.57
2018-05-06T00:31:08.892Z,3.40
2018-05-06T00:33:36.762Z,3.07
2018-05-06T00:36:06.835Z,3.40
2018-05-06T00:38:38.308Z,3.40
2018-05-06T00:41:06.152Z,3.00
2018-05-06T00:43:34.694Z,3.67
2018-05-06T00:46:09.284Z,3.57
2018-05-06T00:48:37.078Z,3.33
2018-05-06T00:51:05.803Z,3.03
2018-05-06T00:53:34.895Z,3.00
2018-05-06T00:56:06.345Z,3.07
2018-05-06T00:58:35.763Z,3.20
2018-05-06T01:01:04.323Z,2.30
2018-05-06T01:03:32.877Z,2.70
2018-05-06T01:06:00.660Z,3.00
2018-05-06T01:08:28.475Z,3.10
2018-05-06T01:10:57.365Z,3.03
2018-05-06T01:13:25.170Z,3.77
2018-05-06T01:15:52.957Z,3.53
2018-05-06T01:18:21.517Z,3.80
2018-05-06T01:20:49.294Z,3.10
2018-05-06T01:23:17.080Z,4.17
2018-05-06T01:25:45.619Z,3.87
2018-05-06T01:28:14.383Z,4.20
2018-05-06T01:30:42.992Z,3.47
2018-05-06T01:33:12.100Z,3.43
2018-05-06T01:35:39.900Z,3.47
2018-05-06T01:38:11.424Z,3.33
2018-05-06T01:40:39.204Z,4.70
2018-05-06T01:43:08.625Z,4.37
2018-05-06T01:45:37.610Z,4.50
2018-05-06T01:48:06.163Z,4.37
2018-05-06T01:50:33.951Z,4.00
2018-05-06T01:53:03.409Z,4.70
2018-05-06T01:55:31.274Z,3.70
2018-05-06T01:57:59.071Z,3.47
2018-05-06T02:00:28.123Z,3.73
2018-05-06T02:02:55.918Z,4.60
2018-05-06T02:05:23.742Z,4.60
2018-05-06T02:07:51.568Z,3.77
2018-05-06T02:10:20.188Z,4.23
2018-05-06T02:12:47.986Z,4.37
2018-05-06T02:15:15.760Z,3.93
2018-05-06T02:17:43.553Z,5.23
2018-05-06T02:20:12.148Z,3.27
2018-05-06T02:22:39.926Z,3.97
2018-05-06T02:25:07.732Z,3.50
2018-05-06T02:27:35.545Z,4.10
2018-05-06T02:30:03.396Z,4.40
2018-05-06T02:32:31.939Z,3.53
2018-05-06T02:34:59.736Z,3.40
2018-05-06T02:37:28.296Z,3.87
2018-05-06T02:39:56.107Z,3.80
2018-05-06T02:42:23.895Z,3.23
2018-05-06T02:44:51.689Z,3.20
2018-05-06T02:47:19.480Z,3.70
2018-05-06T02:49:48.045Z,3.40
2018-05-06T02:52:15.842Z,4.03
2018-05-06T02:54:43.626Z,3.40
2018-05-06T02:57:11.413Z,3.80
2018-05-06T02:59:39.272Z,3.13
2018-05-06T03:02:07.129Z,3.00
2018-05-06T03:04:34.925Z,3.00
2018-05-06T03:07:02.704Z,3.97
2018-05-06T03:09:30.481Z,3.97
2018-05-06T03:11:59.043Z,4.23
2018-05-06T03:14:26.833Z,3.10
2018-05-06T03:16:55.467Z,3.00
2018-05-06T03:19:23.299Z,3.50
2018-05-06T03:21:51.092Z,3.70
2018-05-06T03:24:18.917Z,3.60
2018-05-06T03:26:47.475Z,2.83
2018-05-06T03:29:15.288Z,3.30
2018-05-06T03:31:43.074Z,2.93
2018-05-06T03:34:10.890Z,3.43
2018-05-06T03:36:39.467Z,3.90
2018-05-06T03:39:08.035Z,3.50
2018-05-06T03:41:36.835Z,2.93
2018-05-06T03:44:05.420Z,3.33
2018-05-06T03:46:33.969Z,3.17
2018-05-06T03:49:01.801Z,3.20
2018-05-06T03:51:29.579Z,3.13
2018-05-06T03:53:57.409Z,3.07
2018-05-06T03:56:54.844Z,2.60
2018-05-06T03:59:34.408Z,2.80
2018-05-06T04:05:08.250Z,3.47
2018-05-06T04:07:36.040Z,2.50
2018-05-06T04:10:04.012Z,4.37
2018-05-06T04:12:31.795Z,2.57
2018-05-06T04:14:59.590Z,2.80
2018-05-06T04:17:28.143Z,3.03
2018-05-06T04:19:55.931Z,3.10
2018-05-06T04:22:24.503Z,4.00
2018-05-06T04:24:52.309Z,4.13
2018-05-06T04:27:20.105Z,3.77
2018-05-06T04:29:47.928Z,3.40
2018-05-06T04:32:15.724Z,3.73
2018-05-06T04:34:43.512Z,3.70
2018-05-06T04:37:11.290Z,2.50
2018-05-06T04:39:39.071Z,2.57
2018-05-06T04:42:07.647Z,2.40
2018-05-06T04:44:36.194Z,2.67
2018-05-06T04:47:03.996Z,3.90
2018-05-06T04:49:32.551Z,3.50
2018-05-06T04:52:00.343Z,4.57
2018-05-06T04:54:28.993Z,2.60
2018-05-06T04:56:56.780Z,2.50
2018-05-06T04:59:24.554Z,2.70
2018-05-06T05:01:53.108Z,3.03
2018-05-06T05:04:20.931Z,3.63
2018-05-06T05:06:48.764Z,2.70
2018-05-06T05:09:17.364Z,2.70
2018-05-06T05:11:45.948Z,2.60
2018-05-06T05:14:14.490Z,4.50
2018-05-06T05:16:42.284Z,2.93
2018-05-06T05:19:10.832Z,3.10
2018-05-06T05:21:38.621Z,3.03
2018-05-06T05:24:06.395Z,3.50
2018-05-06T05:26:34.983Z,3.43
2018-05-06T05:29:04.441Z,3.30
2018-05-06T05:31:32.234Z,3.43
2018-05-06T05:34:00.017Z,2.43
2018-05-06T05:36:28.577Z,3.07
2018-05-06T05:38:56.373Z,4.07
2018-05-06T05:41:24.171Z,3.30
2018-05-06T05:43:51.967Z,3.33
2018-05-06T05:46:19.768Z,3.00
2018-05-06T05:48:47.570Z,3.43
2018-05-06T05:51:15.348Z,3.43
2018-05-06T05:53:43.157Z,3.70
2018-05-06T05:56:12.109Z,3.30
2018-05-06T05:58:39.901Z,3.40
2018-05-06T06:01:08.546Z,2.97
2018-05-06T06:03:36.321Z,3.57
2018-05-06T06:06:04.191Z,3.83
2018-05-06T06:08:32.013Z,3.67
2018-05-06T06:10:59.811Z,3.87
2018-05-06T06:13:27.615Z,4.53
2018-05-06T06:15:56.186Z,3.30
2018-05-06T06:18:23.988Z,3.87
2018-05-06T06:20:51.764Z,4.00
2018-05-06T06:23:19.633Z,4.87
2018-05-06T06:25:47.467Z,3.90
2018-05-06T06:28:16.049Z,4.33
2018-05-06T06:30:43.871Z,9.97
2018-05-06T06:33:11.679Z,5.80
2018-05-06T06:35:40.281Z,6.47
2018-05-06T06:38:08.086Z,5.70
2018-05-06T06:40:35.882Z,6.40
2018-05-06T06:43:04.435Z,10.33
2018-05-06T06:45:32.236Z,5.60
2018-05-06T06:48:00.849Z,4.30
2018-05-06T06:50:28.605Z,5.53
2018-05-06T06:52:56.395Z,4.43
2018-05-06T06:55:24.247Z,5.97
2018-05-06T06:57:52.168Z,6.07
2018-05-06T07:00:20.068Z,4.73
2018-05-06T07:02:47.861Z,5.63
2018-05-06T07:05:15.682Z,5.07
2018-05-06T07:07:44.256Z,7.23
2018-05-06T07:10:12.820Z,4.77
2018-05-06T07:12:40.650Z,4.50
2018-05-06T07:15:08.436Z,3.57
2018-05-06T07:17:36.243Z,6.20
2018-05-06T07:20:04.060Z,5.83
2018-05-06T07:22:31.859Z,4.00
2018-05-06T07:25:00.417Z,4.67
2018-05-06T07:27:28.249Z,4.00
2018-05-06T07:29:56.096Z,4.87
2018-05-06T07:32:23.897Z,4.63
2018-05-06T07:34:51.720Z,5.10
2018-05-06T07:37:20.290Z,4.80
2018-05-06T07:39:48.837Z,4.20
2018-05-06T07:42:16.628Z,3.00
2018-05-06T07:44:44.426Z,3.53
2018-05-06T07:47:12.265Z,3.37
2018-05-06T07:49:40.815Z,3.10
2018-05-06T07:52:08.607Z,3.17
2018-05-06T07:54:37.155Z,3.10
2018-05-06T07:57:04.948Z,2.97
2018-05-06T07:59:32.736Z,3.70
2018-05-06T08:02:01.365Z,3.40
2018-05-06T08:04:29.205Z,3.70
2018-05-06T08:06:57.396Z,3.07
2018-05-06T08:09:25.572Z,4.73
2018-05-06T08:11:53.393Z,4.23
2018-05-06T08:14:21.933Z,4.43
2018-05-06T08:16:49.776Z,7.37
2018-05-06T08:19:17.592Z,4.70
2018-05-06T08:21:45.431Z,3.77
2018-05-06T08:24:13.199Z,2.70
2018-05-06T08:26:40.992Z,3.37
2018-05-06T08:29:09.562Z,4.10
2018-05-06T08:31:37.554Z,3.93
2018-05-06T08:34:06.114Z,3.33
2018-05-06T08:36:33.895Z,3.23
2018-05-06T08:39:02.446Z,3.20
2018-05-06T08:41:30.236Z,3.00
2018-05-06T08:43:58.824Z,3.20
2018-05-06T08:46:27.409Z,2.50
2018-05-06T08:48:56.078Z,2.60
2018-05-06T08:51:23.916Z,3.33
2018-05-06T08:53:51.712Z,2.53
2018-05-06T08:56:19.584Z,2.10
2018-05-06T08:58:48.150Z,2.60
2018-05-06T09:01:15.960Z,3.50
2018-05-06T09:03:43.748Z,3.60
2018-05-06T09:06:11.529Z,2.90
2018-05-06T09:08:39.321Z,3.80
2018-05-06T09:11:07.155Z,2.63
2018-05-06T09:13:38.516Z,2.40
2018-05-06T09:16:06.365Z,3.53
2018-05-06T09:18:37.690Z,3.00
2018-05-06T09:21:10.147Z,3.33
2018-05-06T09:23:41.754Z,3.20
2018-05-06T09:26:13.252Z,2.87
2018-05-06T09:28:43.386Z,2.77
2018-05-06T09:31:12.368Z,3.30
2018-05-06T09:33:41.953Z,3.60
2018-05-06T09:36:17.372Z,3.63
2018-05-06T09:38:47.311Z,3.57
2018-05-06T09:41:16.577Z,3.20
2018-05-06T09:43:44.448Z,3.30
2018-05-06T09:46:13.600Z,3.20
2018-05-06T09:48:41.421Z,3.70
2018-05-06T09:51:10.335Z,4.10
2018-05-06T09:53:38.961Z,3.63
2018-05-06T09:56:10.412Z,3.37
2018-05-06T09:58:38.313Z,3.43
2018-05-06T10:01:06.122Z,4.13
2018-05-06T10:03:36.016Z,3.67
2018-05-06T10:06:06.871Z,4.23
2018-05-06T10:08:34.688Z,4.17
2018-05-06T10:11:02.472Z,4.17
2018-05-06T10:13:30.289Z,4.43
2018-05-06T10:15:59.024Z,4.73
2018-05-06T10:18:28.199Z,3.80
2018-05-06T10:20:57.166Z,3.73
2018-05-06T10:23:27.507Z,5.30
2018-05-06T10:25:58.301Z,4.07
2018-05-06T10:28:29.846Z,4.00
2018-05-06T10:31:05.968Z,4.20
2018-05-06T10:33:33.880Z,3.87
2018-05-06T10:36:01.652Z,3.13
2018-05-06T10:38:33.704Z,3.23
2018-05-06T10:41:01.374Z,3.57
2018-05-06T10:43:31.849Z,3.40
2018-05-06T10:45:59.920Z,3.43
2018-05-06T10:48:29.477Z,3.03
2018-05-06T10:50:57.275Z,3.90
2018-05-06T10:53:25.077Z,3.53
2018-05-06T10:55:59.665Z,2.87
2018-05-06T10:58:27.454Z,3.60
2018-05-06T11:00:59.935Z,3.60
2018-05-06T11:03:41.788Z,4.27
2018-05-06T11:09:22.328Z,3.93
2018-05-06T11:12:13.274Z,4.10
2018-05-06T11:14:41.046Z,3.73
2018-05-06T11:17:13.620Z,4.13
2018-05-06T11:19:41.780Z,4.53
2018-05-06T11:22:14.577Z,4.43
2018-05-06T11:24:50.741Z,4.47
2018-05-06T11:27:45.861Z,3.80
2018-05-06T11:30:21.204Z,4.47
2018-05-06T11:32:52.338Z,3.97
2018-05-06T11:35:30.510Z,4.30
2018-05-06T11:38:12.147Z,4.57
2018-05-06T11:40:45.541Z,3.60
2018-05-06T11:43:18.707Z,4.53
2018-05-06T11:46:03.672Z,4.20
2018-05-06T11:48:40.481Z,4.70
2018-05-06T11:51:31.051Z,4.97
2018-05-06T11:54:00.227Z,4.03
2018-05-06T11:56:31.394Z,4.50
2018-05-06T11:59:11.864Z,4.30
2018-05-06T12:02:02.254Z,4.33
2018-05-06T12:04:39.647Z,4.00
2018-05-06T12:07:17.449Z,5.23
2018-05-06T12:09:54.110Z,7.57
2018-05-06T12:12:35.244Z,6.40
2018-05-06T12:15:04.853Z,8.30
2018-05-06T12:17:40.068Z,15.33
2018-05-06T12:20:08.121Z,23.93
2018-05-06T12:22:40.476Z,7.40
2018-05-06T12:25:08.335Z,19.67
2018-05-06T12:27:39.830Z,15.33
2018-05-06T12:30:08.492Z,12.60
2018-05-06T12:32:36.458Z,16.30
2018-05-06T12:35:04.273Z,8.93
2018-05-06T12:37:32.960Z,13.57
2018-05-06T12:40:01.637Z,12.70
2018-05-06T12:42:30.272Z,12.47
2018-05-06T12:44:58.139Z,8.00
2018-05-06T12:47:25.993Z,8.30
2018-05-06T12:49:53.904Z,8.07
2018-05-06T12:52:21.785Z,7.23
2018-05-06T12:54:50.349Z,6.47
2018-05-06T12:58:03.569Z,6.30
2018-05-06T13:00:48.774Z,8.07
2018-05-06T13:03:54.335Z,5.10
2018-05-06T13:06:54.173Z,7.37
2018-05-06T13:09:41.457Z,3.53
2018-05-06T13:12:10.026Z,3.57
2018-05-06T13:14:37.796Z,4.63
2018-05-06T13:17:39.576Z,4.50
2018-05-06T13:23:21.033Z,3.20
2018-05-06T13:25:48.871Z,2.70
2018-05-06T13:28:16.670Z,2.60
2018-05-06T13:30:44.467Z,3.67
2018-05-06T13:33:13.053Z,2.80
2018-05-06T13:35:43.231Z,3.50
2018-05-06T13:38:11.068Z,3.30
2018-05-06T13:40:38.983Z,2.80
2018-05-06T13:43:06.841Z,3.03
2018-05-06T13:45:34.731Z,2.37
2018-05-06T13:48:03.310Z,2.20
2018-05-06T13:50:31.152Z,2.50
2018-05-06T13:52:59.689Z,2.53
2018-05-06T13:55:27.477Z,2.70
2018-05-06T13:57:55.248Z,2.93
2018-05-06T14:00:23.088Z,3.47
2018-05-06T14:02:50.873Z,2.17
2018-05-06T14:05:18.672Z,2.87
2018-05-06T14:07:47.239Z,2.20
2018-05-06T14:10:15.028Z,2.53
2018-05-06T14:12:43.637Z,2.93
2018-05-06T14:15:11.607Z,2.93
2018-05-06T14:17:39.384Z,2.70
2018-05-06T14:20:07.224Z,2.83
2018-05-06T14:22:35.772Z,2.10
2018-05-06T14:25:08.573Z,2.37
2018-05-06T14:27:37.124Z,2.60
2018-05-06T14:30:05.872Z,2.37
2018-05-06T14:32:34.397Z,2.47
2018-05-06T14:35:02.188Z,2.70
2018-05-06T14:37:29.960Z,2.80
2018-05-06T14:39:58.513Z,2.67
2018-05-06T14:42:26.319Z,2.77
2018-05-06T14:44:54.868Z,2.93
2018-05-06T14:47:34.512Z,2.63
2018-05-06T14:50:02.343Z,2.60
2018-05-06T14:52:30.110Z,2.90
2018-05-06T14:54:57.905Z,2.67
2018-05-06T14:57:25.692Z,2.57
2018-05-06T14:59:54.279Z,3.00
2018-05-06T15:02:22.840Z,2.90
2018-05-06T15:04:50.624Z,3.27
2018-05-06T15:07:19.183Z,2.70
2018-05-06T15:09:46.957Z,3.07
2018-05-06T15:12:14.814Z,2.27
2018-05-06T15:14:43.490Z,2.80
2018-05-06T15:17:11.332Z,3.23
2018-05-06T15:19:42.162Z,2.87
2018-05-06T15:22:10.679Z,2.10
2018-05-06T15:24:38.452Z,2.90
2018-05-06T15:27:06.356Z,2.37
2018-05-06T15:29:34.196Z,2.90
2018-05-06T15:32:01.975Z,3.13
2018-05-06T15:34:29.796Z,2.97
2018-05-06T15:36:57.583Z,2.23
2018-05-06T15:39:25.389Z,3.00
2018-05-06T15:41:53.268Z,2.13
2018-05-06T15:44:21.118Z,2.10
2018-05-06T15:46:51.124Z,2.50
2018-05-06T15:49:19.813Z,2.33
2018-05-06T15:51:47.702Z,3.13
2018-05-06T15:54:15.544Z,2.23
2018-05-06T15:56:43.404Z,2.53
2018-05-06T15:59:11.966Z,2.70
2018-05-06T16:01:39.753Z,2.30
2018-05-06T16:04:16.090Z,2.47
2018-05-06T16:06:44.658Z,2.70
2018-05-06T16:09:12.471Z,2.57
2018-05-06T16:11:40.253Z,2.50
2018-05-06T16:14:08.052Z,2.57
2018-05-06T16:16:35.847Z,2.03
2018-05-06T16:19:03.700Z,2.40
2018-05-06T16:21:32.339Z,2.20
2018-05-06T16:24:00.137Z,2.20
2018-05-06T16:26:28.685Z,2.07
2018-05-06T16:28:56.470Z,2.83
2018-05-06T16:31:25.148Z,2.80
2018-05-06T16:33:52.987Z,3.03
2018-05-06T16:36:20.790Z,2.30
2018-05-06T16:38:48.567Z,2.87
2018-05-06T16:41:16.356Z,2.90
2018-05-06T16:43:44.943Z,2.90
2018-05-06T16:46:13.608Z,2.00
2018-05-06T16:48:42.192Z,2.70
2018-05-06T16:51:09.978Z,2.10
2018-05-06T16:53:37.771Z,1.93
2018-05-06T16:56:05.578Z,2.40
2018-05-06T16:58:33.429Z,2.20
2018-05-06T17:01:01.305Z,2.93
2018-05-06T17:03:29.124Z,1.80
2018-05-06T17:05:56.968Z,2.43
2018-05-06T17:08:25.929Z,2.40
2018-05-06T17:10:53.720Z,2.43
2018-05-06T17:13:22.281Z,2.23
2018-05-06T17:15:51.087Z,2.50
2018-05-06T17:18:19.680Z,2.70
2018-05-06T17:20:48.277Z,2.63
2018-05-06T17:23:16.115Z,2.90
2018-05-06T17:25:44.862Z,2.53
2018-05-06T17:28:12.680Z,3.00
2018-05-06T17:30:41.276Z,3.10
2018-05-06T17:33:09.838Z,2.30
2018-05-06T17:35:38.395Z,3.90
2018-05-06T17:38:06.184Z,2.57
2018-05-06T17:40:33.983Z,2.50
2018-05-06T17:43:01.759Z,3.10
2018-05-06T17:45:29.533Z,2.80
2018-05-06T17:47:57.300Z,2.60
2018-05-06T17:50:25.096Z,6.23
2018-05-06T17:52:53.799Z,2.73
2018-05-06T17:55:21.606Z,2.73
2018-05-06T17:57:49.389Z,2.27
2018-05-06T18:00:17.259Z,3.20
2018-05-06T18:02:45.084Z,3.90
2018-05-06T18:05:14.457Z,3.47
2018-05-06T18:07:43.052Z,2.77
2018-05-06T18:10:11.596Z,2.40
2018-05-06T18:12:39.388Z,3.20
2018-05-06T18:15:09.159Z,2.97
2018-05-06T18:17:37.702Z,2.67
2018-05-06T18:20:05.517Z,3.23
2018-05-06T18:22:33.313Z,2.93
2018-05-06T18:25:01.883Z,2.73
2018-05-06T18:27:29.908Z,5.50
2018-05-06T18:29:57.723Z,3.43
2018-05-06T18:32:26.320Z,4.73
2018-05-06T18:34:54.907Z,3.20
2018-05-06T18:37:23.509Z,2.90
2018-05-06T18:39:51.360Z,3.10
2018-05-06T18:42:20.064Z,4.70
2018-05-06T18:44:47.839Z,3.77
2018-05-06T18:47:15.638Z,5.57
2018-05-06T18:49:43.419Z,5.33
2018-05-06T18:52:11.425Z,4.73
2018-05-06T18:54:39.322Z,5.03
2018-05-06T18:57:07.371Z,4.20
2018-05-06T18:59:35.142Z,3.73
2018-05-06T19:02:03.016Z,4.10
2018-05-06T19:04:31.789Z,4.03
2018-05-06T19:06:59.584Z,3.67
2018-05-06T19:09:27.365Z,3.67
2018-05-06T19:11:55.147Z,4.73
2018-05-06T19:14:24.149Z,5.47
2018-05-06T19:16:52.705Z,5.23
2018-05-06T19:19:20.504Z,4.80
2018-05-06T19:21:48.287Z,7.10
2018-05-06T19:24:17.406Z,6.03
2018-05-06T19:26:46.352Z,4.23
2018-05-06T19:29:14.144Z,4.20
2018-05-06T19:31:42.024Z,3.63
2018-05-06T19:34:11.844Z,5.13
2018-05-06T19:36:39.940Z,6.17
2018-05-06T19:39:07.752Z,4.47
2018-05-06T19:41:35.592Z,4.73
2018-05-06T19:44:04.169Z,4.30
2018-05-06T19:46:32.752Z,4.37
2018-05-06T19:49:03.589Z,4.00
2018-05-06T19:51:32.412Z,3.20
2018-05-06T19:54:00.263Z,2.60
2018-05-06T19:56:28.287Z,3.47
2018-05-06T19:58:57.326Z,3.30
2018-05-06T20:01:26.845Z,3.70
2018-05-06T20:03:54.798Z,3.50
2018-05-06T20:06:24.244Z,3.60
2018-05-06T20:08:53.426Z,3.30
2018-05-06T20:11:21.245Z,3.10
2018-05-06T20:13:49.953Z,2.77
2018-05-06T20:16:20.440Z,3.90
2018-05-06T20:18:49.599Z,3.70
2018-05-06T20:21:17.880Z,3.53
2018-05-06T20:23:45.684Z,4.87
2018-05-06T20:26:13.532Z,3.23
2018-05-06T20:28:42.256Z,3.47
2018-05-06T20:31:11.727Z,4.40
2018-05-06T20:33:39.794Z,5.13
2018-05-06T20:36:07.841Z,4.50
2018-05-06T20:38:35.692Z,3.90
2018-05-06T20:41:11.603Z,3.17
2018-05-06T20:43:40.925Z,4.43
2018-05-06T20:46:08.880Z,3.80
2018-05-06T20:48:37.643Z,4.70
2018-05-06T20:51:05.452Z,4.80
2018-05-06T20:53:33.368Z,4.10
2018-05-06T20:56:01.148Z,3.63
2018-05-06T20:58:28.975Z,3.40
2018-05-06T21:00:56.868Z,3.93
2018-05-06T21:03:24.651Z,5.23
2018-05-06T21:05:52.462Z,4.37
2018-05-06T21:08:20.325Z,4.97
2018-05-06T21:10:48.873Z,3.93
2018-05-06T21:13:17.470Z,4.93
2018-05-06T21:15:46.211Z,3.80
2018-05-06T21:18:15.048Z,3.40
2018-05-06T21:20:42.864Z,4.10
2018-05-06T21:23:10.667Z,3.60
2018-05-06T21:25:39.245Z,4.40
2018-05-06T21:28:07.190Z,2.93
2018-05-06T21:30:36.935Z,3.43
2018-05-06T21:33:09.585Z,3.50
2018-05-06T21:35:41.987Z,3.47
2018-05-06T21:38:13.965Z,4.57
2018-05-06T21:40:41.777Z,3.70
2018-05-06T21:43:10.642Z,3.37
2018-05-06T21:45:43.068Z,3.17
2018-05-06T21:48:11.616Z,3.80
2018-05-06T21:50:44.116Z,3.97
2018-05-06T21:53:12.068Z,2.90
2018-05-06T21:55:42.067Z,3.80
2018-05-06T21:58:11.609Z,3.50
2018-05-06T22:00:39.396Z,4.00
2018-05-06T22:03:07.951Z,4.40
2018-05-06T22:05:36.407Z,4.37
2018-05-06T22:08:04.216Z,3.47
2018-05-06T22:10:33.399Z,4.43
2018-05-06T22:13:03.728Z,3.63
2018-05-06T22:15:33.908Z,3.60
2018-05-06T22:18:06.869Z,4.33
2018-05-06T22:20:37.301Z,5.53
2018-05-06T22:23:10.626Z,5.00
2018-05-06T22:25:42.815Z,5.50
2018-05-06T22:28:21.216Z,5.20
2018-05-06T22:30:59.377Z,5.70
2018-05-06T22:33:38.988Z,5.70
2018-05-06T22:36:15.132Z,4.83
2018-05-06T22:38:48.228Z,4.90
2018-05-06T22:41:26.828Z,6.60
2018-05-06T22:43:54.615Z,5.20
2018-05-06T22:46:38.446Z,5.47
2018-05-06T22:49:10.932Z,6.00
2018-05-06T22:51:48.793Z,5.13
2018-05-06T22:54:24.347Z,5.00
2018-05-06T22:57:17.540Z,5.60
2018-05-06T23:00:00.399Z,5.33
2018-05-06T23:02:40.719Z,4.93
2018-05-06T23:05:10.171Z,7.00
2018-05-06T23:07:42.480Z,7.07
2018-05-06T23:10:36.912Z,9.00
2018-05-06T23:13:19.160Z,6.13
2018-05-06T23:16:00.487Z,5.07
2018-05-06T23:18:28.274Z,5.37
2018-05-06T23:20:59.261Z,6.30
2018-05-06T23:27:11.108Z,5.73
2018-05-06T23:29:47.394Z,4.73
2018-05-06T23:32:16.812Z,5.30
2018-05-06T23:34:49.158Z,6.90
2018-05-06T23:37:18.419Z,4.97
2018-05-06T23:39:57.383Z,5.37
2018-05-06T23:42:25.157Z,5.13
2018-05-06T23:45:07.800Z,5.03
2018-05-06T23:47:45.320Z,4.63
2018-05-06T23:50:30.031Z,4.63
2018-05-06T23:53:03.819Z,4.10
2018-05-06T23:55:55.569Z,4.83
2018-05-06T23:58:24.225Z,5.20
